sensor_id;sensor_type;location;lat;lon;timestamp;P1;durP1;ratioP1;P2;durP2;ratioP2
51384;SDS011;37478;55.682;37.462;2023-06-24T00:02:22;12.35;;;8.93;;
51384;SDS011;37478;55.682;37.462;2023-06-24T00:04:49;12.63;;;9.18;;
51384;SDS011;37478;55.682;37.462;2023-06-24T00:07:14;14.90;;;9.77;;
51384;SDS011;37478;55.682;37.462;2023-06-24T00:09:39;15.50;;;10.30;;
51384;SDS011;37478;55.682;37.462;2023-06-24T00:12:05;13.60;;;10.02;;
51384;SDS011;37478;55.682;37.462;2023-06-24T00:14:30;12.40;;;10.27;;
51384;SDS011;37478;55.682;37.462;2023-06-24T00:16:57;12.73;;;8.40;;
51384;SDS011;37478;55.682;37.462;2023-06-24T00:19:25;13.90;;;9.45;;
51384;SDS011;37478;55.682;37.462;2023-06-24T00:21:51;15.70;;;9.43;;
51384;SDS011;37478;55.682;37.462;2023-06-24T00:24:17;18.02;;;10.48;;
51384;SDS011;37478;55.682;37.462;2023-06-24T00:26:42;13.13;;;9.15;;
51384;SDS011;37478;55.682;37.462;2023-06-24T00:29:08;14.55;;;9.70;;
51384;SDS011;37478;55.682;37.462;2023-06-24T00:31:33;14.15;;;10.00;;
51384;SDS011;37478;55.682;37.462;2023-06-24T00:33:58;16.52;;;10.07;;
51384;SDS011;37478;55.682;37.462;2023-06-24T00:36:24;19.48;;;11.38;;
51384;SDS011;37478;55.682;37.462;2023-06-24T00:38:49;17.98;;;10.20;;
51384;SDS011;37478;55.682;37.462;2023-06-24T00:41:16;15.45;;;10.52;;
51384;SDS011;37478;55.682;37.462;2023-06-24T00:43:41;14.77;;;9.93;;
51384;SDS011;37478;55.682;37.462;2023-06-24T00:46:06;15.35;;;10.77;;
51384;SDS011;37478;55.682;37.462;2023-06-24T00:48:32;14.48;;;9.90;;
51384;SDS011;37478;55.682;37.462;2023-06-24T00:50:57;17.15;;;10.60;;
51384;SDS011;37478;55.682;37.462;2023-06-24T00:53:23;13.50;;;9.98;;
51384;SDS011;37478;55.682;37.462;2023-06-24T00:55:50;14.38;;;10.90;;
51384;SDS011;37478;55.682;37.462;2023-06-24T00:58:15;16.27;;;10.50;;
51384;SDS011;37478;55.682;37.462;2023-06-24T01:00:41;18.02;;;11.25;;
51384;SDS011;37478;55.682;37.462;2023-06-24T01:03:07;14.25;;;9.82;;
51384;SDS011;37478;55.682;37.462;2023-06-24T01:05:33;14.43;;;10.13;;
51384;SDS011;37478;55.682;37.462;2023-06-24T01:08:01;14.40;;;9.88;;
51384;SDS011;37478;55.682;37.462;2023-06-24T01:10:27;13.25;;;10.38;;
51384;SDS011;37478;55.682;37.462;2023-06-24T01:12:52;15.00;;;10.63;;
51384;SDS011;37478;55.682;37.462;2023-06-24T01:15:18;13.85;;;9.77;;
51384;SDS011;37478;55.682;37.462;2023-06-24T01:17:56;14.93;;;10.20;;
51384;SDS011;37478;55.682;37.462;2023-06-24T01:20:27;14.02;;;10.00;;
51384;SDS011;37478;55.682;37.462;2023-06-24T01:22:59;14.88;;;10.63;;
51384;SDS011;37478;55.682;37.462;2023-06-24T01:25:53;15.27;;;10.80;;
51384;SDS011;37478;55.682;37.462;2023-06-24T01:33:21;14.15;;;10.48;;
51384;SDS011;37478;55.682;37.462;2023-06-24T01:35:48;19.67;;;11.90;;
51384;SDS011;37478;55.682;37.462;2023-06-24T01:38:35;14.23;;;10.27;;
51384;SDS011;37478;55.682;37.462;2023-06-24T01:41:01;14.38;;;9.80;;
51384;SDS011;37478;55.682;37.462;2023-06-24T01:43:28;13.73;;;9.60;;
51384;SDS011;37478;55.682;37.462;2023-06-24T01:45:53;13.88;;;10.05;;
51384;SDS011;37478;55.682;37.462;2023-06-24T01:48:22;34.78;;;24.02;;
51384;SDS011;37478;55.682;37.462;2023-06-24T01:50:52;29.90;;;21.08;;
51384;SDS011;37478;55.682;37.462;2023-06-24T01:53:20;18.77;;;12.07;;
51384;SDS011;37478;55.682;37.462;2023-06-24T01:55:45;14.57;;;10.23;;
51384;SDS011;37478;55.682;37.462;2023-06-24T01:58:11;16.15;;;11.98;;
51384;SDS011;37478;55.682;37.462;2023-06-24T02:00:37;9.90;;;6.30;;
51384;SDS011;37478;55.682;37.462;2023-06-24T02:03:03;8.27;;;5.90;;
51384;SDS011;37478;55.682;37.462;2023-06-24T02:05:29;13.48;;;6.80;;
51384;SDS011;37478;55.682;37.462;2023-06-24T02:07:56;6.82;;;5.68;;
51384;SDS011;37478;55.682;37.462;2023-06-24T02:10:21;5.00;;;4.00;;
51384;SDS011;37478;55.682;37.462;2023-06-24T02:12:48;4.50;;;3.30;;
51384;SDS011;37478;55.682;37.462;2023-06-24T02:15:14;3.78;;;3.00;;
51384;SDS011;37478;55.682;37.462;2023-06-24T02:17:40;5.60;;;4.03;;
51384;SDS011;37478;55.682;37.462;2023-06-24T02:20:06;4.50;;;3.33;;
51384;SDS011;37478;55.682;37.462;2023-06-24T02:22:34;6.38;;;3.42;;
51384;SDS011;37478;55.682;37.462;2023-06-24T02:24:59;3.53;;;2.80;;
51384;SDS011;37478;55.682;37.462;2023-06-24T02:27:24;4.35;;;2.97;;
51384;SDS011;37478;55.682;37.462;2023-06-24T02:29:50;6.88;;;3.95;;
51384;SDS011;37478;55.682;37.462;2023-06-24T02:32:16;4.38;;;3.40;;
51384;SDS011;37478;55.682;37.462;2023-06-24T02:34:41;3.10;;;2.67;;
51384;SDS011;37478;55.682;37.462;2023-06-24T02:37:06;2.60;;;2.15;;
51384;SDS011;37478;55.682;37.462;2023-06-24T02:39:32;6.45;;;3.53;;
51384;SDS011;37478;55.682;37.462;2023-06-24T02:41:57;3.53;;;3.00;;
51384;SDS011;37478;55.682;37.462;2023-06-24T02:44:22;3.72;;;2.63;;
51384;SDS011;37478;55.682;37.462;2023-06-24T02:46:48;3.40;;;2.80;;
51384;SDS011;37478;55.682;37.462;2023-06-24T02:49:15;3.35;;;2.58;;
51384;SDS011;37478;55.682;37.462;2023-06-24T02:51:41;3.72;;;2.78;;
51384;SDS011;37478;55.682;37.462;2023-06-24T02:54:06;4.50;;;2.63;;
51384;SDS011;37478;55.682;37.462;2023-06-24T02:56:32;3.40;;;2.50;;
51384;SDS011;37478;55.682;37.462;2023-06-24T02:58:57;4.65;;;3.00;;
51384;SDS011;37478;55.682;37.462;2023-06-24T03:01:23;3.60;;;3.00;;
51384;SDS011;37478;55.682;37.462;2023-06-24T03:03:52;3.15;;;2.60;;
51384;SDS011;37478;55.682;37.462;2023-06-24T03:06:18;3.10;;;2.53;;
51384;SDS011;37478;55.682;37.462;2023-06-24T03:08:44;3.05;;;2.50;;
51384;SDS011;37478;55.682;37.462;2023-06-24T03:11:11;4.68;;;2.90;;
51384;SDS011;37478;55.682;37.462;2023-06-24T03:13:37;2.90;;;2.35;;
51384;SDS011;37478;55.682;37.462;2023-06-24T03:16:02;4.00;;;2.65;;
51384;SDS011;37478;55.682;37.462;2023-06-24T03:18:27;2.42;;;2.22;;
51384;SDS011;37478;55.682;37.462;2023-06-24T03:20:53;2.97;;;2.67;;
51384;SDS011;37478;55.682;37.462;2023-06-24T03:23:18;5.60;;;2.28;;
51384;SDS011;37478;55.682;37.462;2023-06-24T03:25:43;2.30;;;2.00;;
51384;SDS011;37478;55.682;37.462;2023-06-24T03:28:09;2.65;;;2.30;;
51384;SDS011;37478;55.682;37.462;2023-06-24T03:30:34;7.85;;;3.95;;
51384;SDS011;37478;55.682;37.462;2023-06-24T03:33:00;3.65;;;2.63;;
51384;SDS011;37478;55.682;37.462;2023-06-24T03:35:25;3.42;;;3.13;;
51384;SDS011;37478;55.682;37.462;2023-06-24T03:37:50;3.45;;;2.70;;
51384;SDS011;37478;55.682;37.462;2023-06-24T03:40:16;5.47;;;3.00;;
51384;SDS011;37478;55.682;37.462;2023-06-24T03:42:42;4.75;;;3.10;;
51384;SDS011;37478;55.682;37.462;2023-06-24T03:45:07;4.97;;;3.20;;
51384;SDS011;37478;55.682;37.462;2023-06-24T03:47:32;3.95;;;2.63;;
51384;SDS011;37478;55.682;37.462;2023-06-24T03:49:58;3.80;;;2.70;;
51384;SDS011;37478;55.682;37.462;2023-06-24T03:52:23;4.10;;;3.00;;
51384;SDS011;37478;55.682;37.462;2023-06-24T03:54:48;4.80;;;3.47;;
51384;SDS011;37478;55.682;37.462;2023-06-24T03:57:14;4.40;;;2.88;;
51384;SDS011;37478;55.682;37.462;2023-06-24T03:59:39;5.35;;;3.40;;
51384;SDS011;37478;55.682;37.462;2023-06-24T04:02:05;2.42;;;2.22;;
51384;SDS011;37478;55.682;37.462;2023-06-24T04:04:33;4.97;;;3.30;;
51384;SDS011;37478;55.682;37.462;2023-06-24T04:06:58;5.43;;;1.95;;
51384;SDS011;37478;55.682;37.462;2023-06-24T04:09:23;2.10;;;1.90;;
51384;SDS011;37478;55.682;37.462;2023-06-24T04:11:48;4.80;;;2.47;;
51384;SDS011;37478;55.682;37.462;2023-06-24T04:14:14;3.88;;;2.00;;
51384;SDS011;37478;55.682;37.462;2023-06-24T04:16:39;2.22;;;2.03;;
51384;SDS011;37478;55.682;37.462;2023-06-24T04:19:05;6.18;;;2.38;;
51384;SDS011;37478;55.682;37.462;2023-06-24T04:21:30;2.88;;;2.10;;
51384;SDS011;37478;55.682;37.462;2023-06-24T04:23:55;3.08;;;2.03;;
51384;SDS011;37478;55.682;37.462;2023-06-24T04:26:21;2.13;;;2.00;;
51384;SDS011;37478;55.682;37.462;2023-06-24T04:28:46;1.95;;;1.80;;
51384;SDS011;37478;55.682;37.462;2023-06-24T04:31:11;2.47;;;2.05;;
51384;SDS011;37478;55.682;37.462;2023-06-24T04:33:37;3.13;;;2.72;;
51384;SDS011;37478;55.682;37.462;2023-06-24T04:36:02;5.18;;;3.42;;
51384;SDS011;37478;55.682;37.462;2023-06-24T04:38:27;4.03;;;3.45;;
51384;SDS011;37478;55.682;37.462;2023-06-24T04:40:53;2.15;;;1.95;;
51384;SDS011;37478;55.682;37.462;2023-06-24T04:43:18;3.85;;;2.38;;
51384;SDS011;37478;55.682;37.462;2023-06-24T04:45:43;1.83;;;1.73;;
51384;SDS011;37478;55.682;37.462;2023-06-24T04:48:08;3.38;;;1.90;;
51384;SDS011;37478;55.682;37.462;2023-06-24T04:50:34;3.53;;;1.50;;
51384;SDS011;37478;55.682;37.462;2023-06-24T04:52:59;1.70;;;1.60;;
51384;SDS011;37478;55.682;37.462;2023-06-24T04:55:26;2.05;;;1.83;;
51384;SDS011;37478;55.682;37.462;2023-06-24T04:57:52;2.22;;;1.80;;
51384;SDS011;37478;55.682;37.462;2023-06-24T05:00:17;3.65;;;1.63;;
51384;SDS011;37478;55.682;37.462;2023-06-24T05:02:43;2.05;;;1.30;;
51384;SDS011;37478;55.682;37.462;2023-06-24T05:05:08;2.28;;;1.40;;
51384;SDS011;37478;55.682;37.462;2023-06-24T05:07:33;3.30;;;1.80;;
51384;SDS011;37478;55.682;37.462;2023-06-24T05:09:58;2.22;;;2.03;;
51384;SDS011;37478;55.682;37.462;2023-06-24T05:12:24;3.78;;;1.80;;
51384;SDS011;37478;55.682;37.462;2023-06-24T05:14:50;1.77;;;1.65;;
51384;SDS011;37478;55.682;37.462;2023-06-24T05:17:16;1.85;;;1.27;;
51384;SDS011;37478;55.682;37.462;2023-06-24T05:19:42;1.40;;;1.30;;
51384;SDS011;37478;55.682;37.462;2023-06-24T05:22:07;2.92;;;1.58;;
51384;SDS011;37478;55.682;37.462;2023-06-24T05:24:32;1.73;;;1.52;;
51384;SDS011;37478;55.682;37.462;2023-06-24T05:27:03;2.60;;;1.60;;
51384;SDS011;37478;55.682;37.462;2023-06-24T05:29:28;2.40;;;1.80;;
51384;SDS011;37478;55.682;37.462;2023-06-24T05:31:53;1.95;;;1.75;;
51384;SDS011;37478;55.682;37.462;2023-06-24T05:34:19;1.63;;;1.45;;
51384;SDS011;37478;55.682;37.462;2023-06-24T05:36:44;1.88;;;1.60;;
51384;SDS011;37478;55.682;37.462;2023-06-24T05:39:09;2.60;;;1.48;;
51384;SDS011;37478;55.682;37.462;2023-06-24T05:41:36;1.92;;;1.80;;
51384;SDS011;37478;55.682;37.462;2023-06-24T05:44:06;3.30;;;1.58;;
51384;SDS011;37478;55.682;37.462;2023-06-24T05:46:32;1.88;;;1.77;;
51384;SDS011;37478;55.682;37.462;2023-06-24T05:48:57;2.25;;;1.55;;
51384;SDS011;37478;55.682;37.462;2023-06-24T05:51:22;1.92;;;1.83;;
51384;SDS011;37478;55.682;37.462;2023-06-24T05:53:48;1.75;;;1.58;;
51384;SDS011;37478;55.682;37.462;2023-06-24T05:56:13;2.95;;;1.85;;
51384;SDS011;37478;55.682;37.462;2023-06-24T05:58:38;2.75;;;1.83;;
51384;SDS011;37478;55.682;37.462;2023-06-24T06:01:04;2.08;;;1.85;;
51384;SDS011;37478;55.682;37.462;2023-06-24T06:03:29;1.48;;;1.38;;
51384;SDS011;37478;55.682;37.462;2023-06-24T06:05:54;4.72;;;1.88;;
51384;SDS011;37478;55.682;37.462;2023-06-24T06:08:20;3.15;;;1.60;;
51384;SDS011;37478;55.682;37.462;2023-06-24T06:10:45;3.58;;;1.80;;
51384;SDS011;37478;55.682;37.462;2023-06-24T06:13:10;2.00;;;1.80;;
51384;SDS011;37478;55.682;37.462;2023-06-24T06:15:35;7.53;;;1.70;;
51384;SDS011;37478;55.682;37.462;2023-06-24T06:18:01;3.00;;;1.92;;
51384;SDS011;37478;55.682;37.462;2023-06-24T06:20:26;6.70;;;2.08;;
51384;SDS011;37478;55.682;37.462;2023-06-24T06:22:51;2.22;;;2.08;;
51384;SDS011;37478;55.682;37.462;2023-06-24T06:25:17;2.58;;;2.20;;
51384;SDS011;37478;55.682;37.462;2023-06-24T06:27:42;2.25;;;1.83;;
51384;SDS011;37478;55.682;37.462;2023-06-24T06:30:07;3.85;;;2.60;;
51384;SDS011;37478;55.682;37.462;2023-06-24T06:32:33;3.58;;;2.50;;
51384;SDS011;37478;55.682;37.462;2023-06-24T06:34:58;7.13;;;2.42;;
51384;SDS011;37478;55.682;37.462;2023-06-24T06:37:23;3.42;;;1.88;;
51384;SDS011;37478;55.682;37.462;2023-06-24T06:39:49;2.60;;;2.22;;
51384;SDS011;37478;55.682;37.462;2023-06-24T06:42:15;4.18;;;2.30;;
51384;SDS011;37478;55.682;37.462;2023-06-24T06:44:40;3.67;;;2.40;;
51384;SDS011;37478;55.682;37.462;2023-06-24T06:47:06;5.32;;;2.33;;
51384;SDS011;37478;55.682;37.462;2023-06-24T06:49:31;3.15;;;2.50;;
51384;SDS011;37478;55.682;37.462;2023-06-24T06:51:56;2.90;;;2.63;;
51384;SDS011;37478;55.682;37.462;2023-06-24T06:54:22;4.38;;;2.83;;
51384;SDS011;37478;55.682;37.462;2023-06-24T06:56:47;4.25;;;2.53;;
51384;SDS011;37478;55.682;37.462;2023-06-24T06:59:13;2.80;;;2.42;;
51384;SDS011;37478;55.682;37.462;2023-06-24T07:01:38;3.08;;;2.75;;
51384;SDS011;37478;55.682;37.462;2023-06-24T07:04:03;3.40;;;2.85;;
51384;SDS011;37478;55.682;37.462;2023-06-24T07:06:29;3.45;;;2.90;;
51384;SDS011;37478;55.682;37.462;2023-06-24T07:08:54;3.55;;;3.03;;
51384;SDS011;37478;55.682;37.462;2023-06-24T07:11:19;3.30;;;2.40;;
51384;SDS011;37478;55.682;37.462;2023-06-24T07:13:45;2.78;;;2.53;;
51384;SDS011;37478;55.682;37.462;2023-06-24T07:16:11;3.95;;;2.50;;
51384;SDS011;37478;55.682;37.462;2023-06-24T07:18:36;3.65;;;2.47;;
51384;SDS011;37478;55.682;37.462;2023-06-24T07:21:01;6.10;;;2.60;;
51384;SDS011;37478;55.682;37.462;2023-06-24T07:23:27;3.67;;;2.50;;
51384;SDS011;37478;55.682;37.462;2023-06-24T07:25:52;3.58;;;2.40;;
51384;SDS011;37478;55.682;37.462;2023-06-24T07:28:17;3.65;;;2.80;;
51384;SDS011;37478;55.682;37.462;2023-06-24T07:30:42;5.63;;;3.05;;
51384;SDS011;37478;55.682;37.462;2023-06-24T07:33:08;5.32;;;2.88;;
51384;SDS011;37478;55.682;37.462;2023-06-24T07:35:34;3.50;;;2.65;;
51384;SDS011;37478;55.682;37.462;2023-06-24T07:37:59;4.43;;;3.22;;
51384;SDS011;37478;55.682;37.462;2023-06-24T07:40:25;3.47;;;2.95;;
51384;SDS011;37478;55.682;37.462;2023-06-24T07:42:50;4.95;;;3.17;;
51384;SDS011;37478;55.682;37.462;2023-06-24T07:45:15;6.70;;;3.70;;
51384;SDS011;37478;55.682;37.462;2023-06-24T07:47:40;6.63;;;4.13;;
51384;SDS011;37478;55.682;37.462;2023-06-24T07:50:06;3.90;;;3.30;;
51384;SDS011;37478;55.682;37.462;2023-06-24T07:52:31;5.55;;;3.30;;
51384;SDS011;37478;55.682;37.462;2023-06-24T07:54:57;5.05;;;3.28;;
51384;SDS011;37478;55.682;37.462;2023-06-24T07:57:22;5.25;;;4.22;;
51384;SDS011;37478;55.682;37.462;2023-06-24T07:59:47;6.68;;;3.38;;
51384;SDS011;37478;55.682;37.462;2023-06-24T08:02:13;4.05;;;3.22;;
51384;SDS011;37478;55.682;37.462;2023-06-24T08:04:38;5.97;;;3.10;;
51384;SDS011;37478;55.682;37.462;2023-06-24T08:07:03;5.85;;;3.40;;
51384;SDS011;37478;55.682;37.462;2023-06-24T08:09:29;4.10;;;3.05;;
51384;SDS011;37478;55.682;37.462;2023-06-24T08:11:54;6.13;;;3.97;;
51384;SDS011;37478;55.682;37.462;2023-06-24T08:14:20;5.03;;;3.60;;
51384;SDS011;37478;55.682;37.462;2023-06-24T08:16:45;4.53;;;3.05;;
51384;SDS011;37478;55.682;37.462;2023-06-24T08:19:10;7.63;;;3.40;;
51384;SDS011;37478;55.682;37.462;2023-06-24T08:21:36;5.10;;;3.63;;
51384;SDS011;37478;55.682;37.462;2023-06-24T08:24:03;5.93;;;3.75;;
51384;SDS011;37478;55.682;37.462;2023-06-24T08:26:28;5.88;;;3.85;;
51384;SDS011;37478;55.682;37.462;2023-06-24T08:28:53;11.00;;;6.22;;
51384;SDS011;37478;55.682;37.462;2023-06-24T08:31:18;6.82;;;4.13;;
51384;SDS011;37478;55.682;37.462;2023-06-24T08:33:47;6.88;;;4.53;;
51384;SDS011;37478;55.682;37.462;2023-06-24T08:36:16;7.47;;;5.40;;
51384;SDS011;37478;55.682;37.462;2023-06-24T08:38:42;6.50;;;4.75;;
51384;SDS011;37478;55.682;37.462;2023-06-24T08:41:07;6.82;;;4.05;;
51384;SDS011;37478;55.682;37.462;2023-06-24T08:43:32;6.25;;;4.25;;
51384;SDS011;37478;55.682;37.462;2023-06-24T08:45:58;6.10;;;3.88;;
51384;SDS011;37478;55.682;37.462;2023-06-24T08:48:23;10.07;;;4.88;;
51384;SDS011;37478;55.682;37.462;2023-06-24T08:50:50;8.23;;;5.82;;
51384;SDS011;37478;55.682;37.462;2023-06-24T08:53:16;7.63;;;5.30;;
51384;SDS011;37478;55.682;37.462;2023-06-24T08:55:43;8.25;;;5.47;;
51384;SDS011;37478;55.682;37.462;2023-06-24T08:58:09;6.75;;;4.88;;
51384;SDS011;37478;55.682;37.462;2023-06-24T09:00:35;5.05;;;3.72;;
51384;SDS011;37478;55.682;37.462;2023-06-24T09:03:00;7.65;;;3.90;;
51384;SDS011;37478;55.682;37.462;2023-06-24T09:05:26;7.60;;;4.75;;
51384;SDS011;37478;55.682;37.462;2023-06-24T09:07:51;6.60;;;4.28;;
51384;SDS011;37478;55.682;37.462;2023-06-24T09:10:32;6.50;;;4.20;;
51384;SDS011;37478;55.682;37.462;2023-06-24T09:12:59;5.72;;;4.07;;
51384;SDS011;37478;55.682;37.462;2023-06-24T09:15:24;7.85;;;4.78;;
51384;SDS011;37478;55.682;37.462;2023-06-24T09:17:49;6.00;;;3.75;;
51384;SDS011;37478;55.682;37.462;2023-06-24T09:20:15;6.18;;;4.40;;
51384;SDS011;37478;55.682;37.462;2023-06-24T09:22:45;7.88;;;5.32;;
51384;SDS011;37478;55.682;37.462;2023-06-24T09:25:13;7.75;;;4.10;;
51384;SDS011;37478;55.682;37.462;2023-06-24T09:27:41;5.47;;;3.90;;
51384;SDS011;37478;55.682;37.462;2023-06-24T09:30:18;6.03;;;4.15;;
51384;SDS011;37478;55.682;37.462;2023-06-24T09:32:44;5.63;;;3.85;;
51384;SDS011;37478;55.682;37.462;2023-06-24T09:35:10;8.15;;;4.03;;
51384;SDS011;37478;55.682;37.462;2023-06-24T09:37:35;6.60;;;4.82;;
51384;SDS011;37478;55.682;37.462;2023-06-24T09:40:00;5.05;;;3.97;;
51384;SDS011;37478;55.682;37.462;2023-06-24T09:42:29;7.43;;;4.15;;
51384;SDS011;37478;55.682;37.462;2023-06-24T09:44:55;6.05;;;3.67;;
51384;SDS011;37478;55.682;37.462;2023-06-24T09:47:20;5.55;;;4.10;;
51384;SDS011;37478;55.682;37.462;2023-06-24T09:49:50;7.03;;;4.40;;
51384;SDS011;37478;55.682;37.462;2023-06-24T09:52:15;6.07;;;4.35;;
51384;SDS011;37478;55.682;37.462;2023-06-24T09:54:41;5.70;;;4.45;;
51384;SDS011;37478;55.682;37.462;2023-06-24T09:57:08;5.32;;;4.22;;
51384;SDS011;37478;55.682;37.462;2023-06-24T09:59:35;8.48;;;5.85;;
51384;SDS011;37478;55.682;37.462;2023-06-24T10:02:02;8.98;;;6.28;;
51384;SDS011;37478;55.682;37.462;2023-06-24T10:04:28;7.00;;;5.13;;
51384;SDS011;37478;55.682;37.462;2023-06-24T10:06:54;9.40;;;5.95;;
51384;SDS011;37478;55.682;37.462;2023-06-24T10:09:20;9.43;;;6.10;;
51384;SDS011;37478;55.682;37.462;2023-06-24T10:11:46;9.98;;;6.50;;
51384;SDS011;37478;55.682;37.462;2023-06-24T10:14:11;8.60;;;6.63;;
51384;SDS011;37478;55.682;37.462;2023-06-24T10:16:37;10.52;;;7.63;;
51384;SDS011;37478;55.682;37.462;2023-06-24T10:19:02;9.07;;;6.63;;
51384;SDS011;37478;55.682;37.462;2023-06-24T10:24:32;7.82;;;6.90;;
51384;SDS011;37478;55.682;37.462;2023-06-24T10:27:04;8.02;;;6.45;;
51384;SDS011;37478;55.682;37.462;2023-06-24T10:29:33;9.40;;;6.40;;
51384;SDS011;37478;55.682;37.462;2023-06-24T10:32:02;8.95;;;5.72;;
51384;SDS011;37478;55.682;37.462;2023-06-24T10:36:54;8.38;;;6.40;;
51384;SDS011;37478;55.682;37.462;2023-06-24T10:44:48;10.27;;;6.93;;
51384;SDS011;37478;55.682;37.462;2023-06-24T10:47:13;8.95;;;6.60;;
51384;SDS011;37478;55.682;37.462;2023-06-24T10:49:38;9.55;;;7.03;;
51384;SDS011;37478;55.682;37.462;2023-06-24T10:52:04;9.93;;;6.75;;
51384;SDS011;37478;55.682;37.462;2023-06-24T10:54:29;10.18;;;7.00;;
51384;SDS011;37478;55.682;37.462;2023-06-24T10:56:54;9.88;;;6.18;;
51384;SDS011;37478;55.682;37.462;2023-06-24T10:59:20;10.25;;;7.70;;
51384;SDS011;37478;55.682;37.462;2023-06-24T11:01:55;11.35;;;7.18;;
51384;SDS011;37478;55.682;37.462;2023-06-24T11:04:20;8.73;;;6.57;;
51384;SDS011;37478;55.682;37.462;2023-06-24T11:07:01;11.75;;;6.55;;
51384;SDS011;37478;55.682;37.462;2023-06-24T11:09:27;7.22;;;6.43;;
51384;SDS011;37478;55.682;37.462;2023-06-24T11:11:52;8.50;;;6.40;;
51384;SDS011;37478;55.682;37.462;2023-06-24T11:14:19;8.95;;;6.95;;
51384;SDS011;37478;55.682;37.462;2023-06-24T11:16:47;8.40;;;6.75;;
51384;SDS011;37478;55.682;37.462;2023-06-24T11:19:13;10.85;;;7.10;;
51384;SDS011;37478;55.682;37.462;2023-06-24T11:21:38;9.40;;;7.03;;
51384;SDS011;37478;55.682;37.462;2023-06-24T11:24:05;10.68;;;7.10;;
51384;SDS011;37478;55.682;37.462;2023-06-24T11:26:31;10.43;;;7.60;;
51384;SDS011;37478;55.682;37.462;2023-06-24T11:28:57;9.95;;;8.07;;
51384;SDS011;37478;55.682;37.462;2023-06-24T11:31:25;9.57;;;7.22;;
51384;SDS011;37478;55.682;37.462;2023-06-24T11:33:50;8.73;;;6.57;;
51384;SDS011;37478;55.682;37.462;2023-06-24T11:36:17;9.75;;;6.70;;
51384;SDS011;37478;55.682;37.462;2023-06-24T11:38:42;8.05;;;6.30;;
51384;SDS011;37478;55.682;37.462;2023-06-24T11:41:08;9.55;;;6.53;;
51384;SDS011;37478;55.682;37.462;2023-06-24T11:43:33;10.98;;;7.15;;
51384;SDS011;37478;55.682;37.462;2023-06-24T11:45:59;8.02;;;6.40;;
51384;SDS011;37478;55.682;37.462;2023-06-24T11:48:30;10.18;;;6.80;;
51384;SDS011;37478;55.682;37.462;2023-06-24T11:50:55;8.63;;;6.60;;
51384;SDS011;37478;55.682;37.462;2023-06-24T11:53:30;11.70;;;7.60;;
51384;SDS011;37478;55.682;37.462;2023-06-24T11:55:56;9.68;;;6.55;;
51384;SDS011;37478;55.682;37.462;2023-06-24T11:58:21;9.88;;;6.47;;
51384;SDS011;37478;55.682;37.462;2023-06-24T12:00:48;9.93;;;6.95;;
51384;SDS011;37478;55.682;37.462;2023-06-24T12:03:13;10.52;;;6.70;;
51384;SDS011;37478;55.682;37.462;2023-06-24T12:05:39;13.43;;;8.35;;
51384;SDS011;37478;55.682;37.462;2023-06-24T12:08:11;7.43;;;5.00;;
51384;SDS011;37478;55.682;37.462;2023-06-24T12:10:38;6.95;;;5.30;;
51384;SDS011;37478;55.682;37.462;2023-06-24T12:13:03;14.55;;;5.75;;
51384;SDS011;37478;55.682;37.462;2023-06-24T12:15:31;12.15;;;5.80;;
51384;SDS011;37478;55.682;37.462;2023-06-24T12:17:56;7.20;;;5.45;;
51384;SDS011;37478;55.682;37.462;2023-06-24T12:20:21;6.50;;;4.68;;
51384;SDS011;37478;55.682;37.462;2023-06-24T12:22:47;7.00;;;4.88;;
51384;SDS011;37478;55.682;37.462;2023-06-24T12:25:13;6.15;;;4.20;;
51384;SDS011;37478;55.682;37.462;2023-06-24T12:27:39;6.10;;;4.68;;
51384;SDS011;37478;55.682;37.462;2023-06-24T12:30:07;6.18;;;4.68;;
51384;SDS011;37478;55.682;37.462;2023-06-24T12:32:32;5.50;;;4.63;;
51384;SDS011;37478;55.682;37.462;2023-06-24T12:34:58;7.38;;;4.50;;
51384;SDS011;37478;55.682;37.462;2023-06-24T12:37:23;4.70;;;3.60;;
51384;SDS011;37478;55.682;37.462;2023-06-24T12:39:49;8.70;;;4.10;;
51384;SDS011;37478;55.682;37.462;2023-06-24T12:42:16;6.90;;;3.78;;
51384;SDS011;37478;55.682;37.462;2023-06-24T12:44:41;10.20;;;4.28;;
51384;SDS011;37478;55.682;37.462;2023-06-24T12:47:06;5.15;;;4.15;;
51384;SDS011;37478;55.682;37.462;2023-06-24T12:49:32;6.00;;;3.47;;
51384;SDS011;37478;55.682;37.462;2023-06-24T12:51:57;7.30;;;4.88;;
51384;SDS011;37478;55.682;37.462;2023-06-24T12:54:22;7.65;;;4.30;;
51384;SDS011;37478;55.682;37.462;2023-06-24T12:56:48;8.25;;;3.72;;
51384;SDS011;37478;55.682;37.462;2023-06-24T12:59:13;6.72;;;4.10;;
51384;SDS011;37478;55.682;37.462;2023-06-24T13:01:38;7.35;;;4.10;;
51384;SDS011;37478;55.682;37.462;2023-06-24T13:04:04;5.90;;;4.80;;
51384;SDS011;37478;55.682;37.462;2023-06-24T13:06:29;6.43;;;4.97;;
51384;SDS011;37478;55.682;37.462;2023-06-24T13:08:55;6.13;;;4.88;;
51384;SDS011;37478;55.682;37.462;2023-06-24T13:11:20;7.13;;;4.50;;
51384;SDS011;37478;55.682;37.462;2023-06-24T13:13:45;7.13;;;5.03;;
51384;SDS011;37478;55.682;37.462;2023-06-24T13:16:11;6.60;;;4.35;;
51384;SDS011;37478;55.682;37.462;2023-06-24T13:18:36;4.28;;;3.88;;
51384;SDS011;37478;55.682;37.462;2023-06-24T13:21:01;6.63;;;4.60;;
51384;SDS011;37478;55.682;37.462;2023-06-24T13:23:27;7.63;;;4.60;;
51384;SDS011;37478;55.682;37.462;2023-06-24T13:25:52;6.63;;;4.78;;
51384;SDS011;37478;55.682;37.462;2023-06-24T13:28:17;7.68;;;4.75;;
51384;SDS011;37478;55.682;37.462;2023-06-24T13:30:43;7.13;;;4.70;;
51384;SDS011;37478;55.682;37.462;2023-06-24T13:33:08;5.05;;;4.22;;
51384;SDS011;37478;55.682;37.462;2023-06-24T13:35:33;5.70;;;3.90;;
51384;SDS011;37478;55.682;37.462;2023-06-24T13:37:59;5.53;;;3.95;;
51384;SDS011;37478;55.682;37.462;2023-06-24T13:40:24;7.40;;;4.90;;
51384;SDS011;37478;55.682;37.462;2023-06-24T13:42:49;6.75;;;4.72;;
51384;SDS011;37478;55.682;37.462;2023-06-24T13:45:15;6.60;;;4.20;;
51384;SDS011;37478;55.682;37.462;2023-06-24T13:47:40;9.18;;;4.95;;
51384;SDS011;37478;55.682;37.462;2023-06-24T13:50:05;8.55;;;5.10;;
51384;SDS011;37478;55.682;37.462;2023-06-24T13:52:31;6.90;;;3.90;;
51384;SDS011;37478;55.682;37.462;2023-06-24T13:54:56;8.20;;;3.72;;
51384;SDS011;37478;55.682;37.462;2023-06-24T13:57:22;7.55;;;4.10;;
51384;SDS011;37478;55.682;37.462;2023-06-24T13:59:47;5.53;;;4.18;;
51384;SDS011;37478;55.682;37.462;2023-06-24T14:02:12;5.72;;;4.30;;
51384;SDS011;37478;55.682;37.462;2023-06-24T14:04:38;7.38;;;4.80;;
51384;SDS011;37478;55.682;37.462;2023-06-24T14:07:06;5.93;;;4.18;;
51384;SDS011;37478;55.682;37.462;2023-06-24T14:09:32;7.20;;;4.15;;
51384;SDS011;37478;55.682;37.462;2023-06-24T14:11:57;10.38;;;5.22;;
51384;SDS011;37478;55.682;37.462;2023-06-24T14:14:23;6.40;;;4.25;;
51384;SDS011;37478;55.682;37.462;2023-06-24T14:16:48;7.55;;;4.20;;
51384;SDS011;37478;55.682;37.462;2023-06-24T14:19:13;6.95;;;4.22;;
51384;SDS011;37478;55.682;37.462;2023-06-24T14:21:39;5.88;;;4.50;;
51384;SDS011;37478;55.682;37.462;2023-06-24T14:24:05;6.57;;;4.20;;
51384;SDS011;37478;55.682;37.462;2023-06-24T14:26:31;8.75;;;4.72;;
51384;SDS011;37478;55.682;37.462;2023-06-24T14:28:57;8.57;;;4.15;;
51384;SDS011;37478;55.682;37.462;2023-06-24T14:31:22;8.52;;;4.13;;
51384;SDS011;37478;55.682;37.462;2023-06-24T14:33:47;8.82;;;4.78;;
51384;SDS011;37478;55.682;37.462;2023-06-24T14:36:13;5.30;;;4.13;;
51384;SDS011;37478;55.682;37.462;2023-06-24T14:38:38;5.40;;;3.80;;
51384;SDS011;37478;55.682;37.462;2023-06-24T14:41:03;7.13;;;4.05;;